createdAt,value
2022-08-01T00:00:09.315Z,98954.53
2022-08-01T00:02:39.270Z,98954.31
2022-08-01T00:05:07.140Z,98945.94
2022-08-01T00:07:36.790Z,98947.38
2022-08-01T00:10:09.176Z,98941.84
2022-08-01T00:12:36.012Z,98938.53
2022-08-01T00:15:03.705Z,98934.84
2022-08-01T00:17:30.375Z,98934.03
2022-08-01T00:19:56.952Z,98938.13
2022-08-01T00:22:23.671Z,98942.63
2022-08-01T00:24:50.695Z,98947.56
2022-08-01T00:27:17.322Z,98940.56
2022-08-01T00:30:11.862Z,98936.50
2022-08-01T00:32:33.698Z,98938.34
2022-08-01T00:35:00.384Z,98939.38
2022-08-01T00:37:27.102Z,98934.03
2022-08-01T00:39:53.788Z,98932.78
2022-08-01T00:42:20.424Z,98933.63
2022-08-01T00:44:48.295Z,98942.25
2022-08-01T00:47:15.068Z,98930.75
2022-08-01T00:49:41.830Z,98923.75
2022-08-01T00:52:09.461Z,98917.63
2022-08-01T00:54:36.591Z,98924.59
2022-08-01T00:57:04.558Z,98919.25
2022-08-01T00:59:31.658Z,98916.78
2022-08-01T01:01:58.981Z,98924.59
2022-08-01T01:04:25.695Z,98928.25
2022-08-01T01:07:27.813Z,98925.00
2022-08-01T01:09:58.982Z,98909.19
2022-08-01T01:12:38.284Z,98916.38
2022-08-01T01:15:19.414Z,98906.34
2022-08-01T01:17:51.876Z,98903.88
2022-08-01T01:20:20.069Z,98903.22
2022-08-01T01:23:14.721Z,98895.84
2022-08-01T01:25:50.967Z,98898.31
2022-08-01T01:29:02.086Z,98898.31
2022-08-01T01:31:29.952Z,98904.06
2022-08-01T01:33:58.219Z,98911.47
2022-08-01T01:36:26.029Z,98910.22
2022-08-01T01:38:53.502Z,98907.78
2022-08-01T01:41:21.059Z,98912.47
2022-08-01T01:43:48.189Z,98899.53
2022-08-01T01:46:19.855Z,98905.09
2022-08-01T01:48:47.672Z,98905.72
2022-08-01T01:51:15.104Z,98902.00
2022-08-01T01:53:42.430Z,98904.88
2022-08-01T01:56:10.220Z,98907.78
2022-08-01T01:58:38.183Z,98899.34
2022-08-01T02:01:04.971Z,98907.16
2022-08-01T02:03:42.877Z,98916.38
2022-08-01T02:06:09.740Z,98907.78
2022-08-01T02:08:37.319Z,98908.38
2022-08-01T02:11:19.536Z,98909.41
2022-08-01T02:14:02.390Z,98918.00
2022-08-01T02:16:33.110Z,98897.50
2022-08-01T02:19:00.954Z,98902.00
2022-08-01T02:21:49.741Z,98920.06
2022-08-01T02:24:30.577Z,98907.75
2022-08-01T02:27:01.345Z,98905.09
2022-08-01T02:29:39.162Z,98910.22
2022-08-01T02:32:06.392Z,98909.59
2022-08-01T02:34:34.285Z,98910.84
2022-08-01T02:37:02.546Z,98906.94
2022-08-01T02:39:30.248Z,98913.09
2022-08-01T02:42:04.986Z,98911.66
2022-08-01T02:44:34.679Z,98910.81
2022-08-01T02:47:05.933Z,98904.47
2022-08-01T02:49:35.419Z,98911.88
2022-08-01T02:52:07.066Z,98908.59
2022-08-01T02:54:34.584Z,98910.22
2022-08-01T02:57:02.496Z,98912.69
2022-08-01T02:59:32.883Z,98915.34
2022-08-01T03:02:01.406Z,98908.97
2022-08-01T03:04:30.434Z,98911.66
2022-08-01T03:06:59.668Z,98917.19
2022-08-01T03:09:28.002Z,98921.72
2022-08-01T03:11:58.540Z,98923.78
2022-08-01T03:14:25.855Z,98927.22
2022-08-01T03:16:52.789Z,98927.44
2022-08-01T03:19:21.384Z,98920.47
2022-08-01T03:21:48.556Z,98926.38
2022-08-01T03:24:15.647Z,98913.91
2022-08-01T03:26:42.925Z,98922.09
2022-08-01T03:29:18.614Z,98929.28
2022-08-01T03:31:46.263Z,98922.94
2022-08-01T03:34:13.087Z,98926.22
2022-08-01T03:36:47.790Z,98929.50
2022-08-01T03:39:17.963Z,98923.53
2022-08-01T03:41:52.571Z,98920.91
2022-08-01T03:44:27.107Z,98918.00
2022-08-01T03:46:59.408Z,98927.03
2022-08-01T03:49:30.990Z,98919.66
2022-08-01T03:51:58.221Z,98913.09
2022-08-01T03:54:26.571Z,98921.91
2022-08-01T03:56:53.516Z,98918.44
2022-08-01T03:59:20.551Z,98925.19
2022-08-01T04:01:47.562Z,98924.13
2022-08-01T04:04:14.554Z,98922.47
2022-08-01T04:06:42.102Z,98928.00
2022-08-01T04:09:13.460Z,98929.25
2022-08-01T04:11:41.114Z,98931.72
2022-08-01T04:14:09.190Z,98926.56
2022-08-01T04:16:36.259Z,98933.50
2022-08-01T04:19:03.197Z,98938.84
2022-08-01T04:21:30.289Z,98931.53
2022-08-01T04:24:00.042Z,98935.16
2022-08-01T04:26:28.538Z,98933.13
2022-08-01T04:28:56.273Z,98942.75
2022-08-01T04:31:23.982Z,98941.72
2022-08-01T04:33:52.181Z,98950.72
2022-08-01T04:36:24.064Z,98945.81
2022-08-01T04:38:54.096Z,98958.53
2022-08-01T04:41:21.239Z,98958.56
2022-08-01T04:43:47.887Z,98957.50
2022-08-01T04:46:15.158Z,98959.34
2022-08-01T04:48:42.289Z,98952.41
2022-08-01T04:51:16.533Z,98963.06
2022-08-01T04:53:44.602Z,98957.38
2022-08-01T04:56:14.407Z,98953.28
2022-08-01T04:58:42.289Z,98955.13
2022-08-01T05:01:09.510Z,98959.22
2022-08-01T05:03:39.000Z,98959.00
2022-08-01T05:06:06.339Z,98961.88
2022-08-01T05:08:32.969Z,98959.44
2022-08-01T05:10:59.826Z,98959.38
2022-08-01T05:13:26.921Z,98958.00
2022-08-01T05:15:53.814Z,98958.22
2022-08-01T05:18:26.207Z,98961.50
2022-08-01T05:20:55.265Z,98963.34
2022-08-01T05:23:34.135Z,98961.53
2022-08-01T05:26:09.408Z,98966.22
2022-08-01T05:28:36.547Z,98961.28
2022-08-01T05:31:04.159Z,98971.78
2022-08-01T05:33:30.897Z,98966.47
2022-08-01T05:35:57.532Z,98969.13
2022-08-01T05:38:24.149Z,98970.16
2022-08-01T05:40:50.835Z,98981.25
2022-08-01T05:43:17.564Z,98983.50
2022-08-01T05:45:45.673Z,98981.63
2022-08-01T05:48:12.552Z,98977.94
2022-08-01T05:50:39.339Z,98983.88
2022-08-01T05:53:06.047Z,98977.94
2022-08-01T05:55:32.645Z,98986.97
2022-08-01T05:57:59.226Z,98989.41
2022-08-01T06:00:25.988Z,98981.41
2022-08-01T06:02:52.744Z,98988.22
2022-08-01T06:05:19.557Z,98990.66
2022-08-01T06:07:46.193Z,98993.53
2022-08-01T06:10:12.872Z,98997.88
2022-08-01T06:12:39.615Z,98993.97
2022-08-01T06:15:08.892Z,98997.06
2022-08-01T06:17:35.620Z,99003.22
2022-08-01T06:20:02.338Z,99011.22
2022-08-01T06:22:29.004Z,99010.78
2022-08-01T06:24:57.695Z,99018.38
2022-08-01T06:27:26.033Z,99022.84
2022-08-01T06:29:54.702Z,99022.63
2022-08-01T06:32:27.390Z,99033.66
2022-08-01T06:34:55.093Z,99026.91
2022-08-01T06:37:22.674Z,99035.66
2022-08-01T06:39:50.764Z,99032.13
2022-08-01T06:42:18.737Z,99031.09
2022-08-01T06:44:45.956Z,99038.91
2022-08-01T06:47:12.688Z,99034.69
2022-08-01T06:49:39.361Z,99038.00
2022-08-01T06:52:06.301Z,99032.56
2022-08-01T06:54:33.083Z,99032.13
2022-08-01T06:56:59.681Z,99036.63
2022-08-01T06:59:26.307Z,99037.31
2022-08-01T07:01:52.948Z,99032.59
2022-08-01T07:04:19.644Z,99040.53
2022-08-01T07:06:46.307Z,99034.47
2022-08-01T07:09:14.629Z,99043.88
2022-08-01T07:11:42.008Z,99040.69
2022-08-01T07:14:08.834Z,99047.69
2022-08-01T07:16:35.786Z,99046.88
2022-08-01T07:19:02.435Z,99049.53
2022-08-01T07:21:38.655Z,99053.69
2022-08-01T07:24:13.163Z,99050.16
2022-08-01T07:26:53.335Z,99053.03
2022-08-01T07:29:27.952Z,99058.19
2022-08-01T07:31:56.561Z,99065.38
2022-08-01T07:34:24.662Z,99053.91
2022-08-01T07:36:51.857Z,99054.91
2022-08-01T07:39:18.618Z,99051.84
2022-08-01T07:42:06.342Z,99052.88
2022-08-01T07:44:32.088Z,99054.31
2022-08-01T07:46:58.785Z,99057.41
2022-08-01T07:49:25.523Z,99064.19
2022-08-01T07:52:03.657Z,99062.16
2022-08-01T07:54:34.663Z,99067.47
2022-08-01T07:57:02.456Z,99062.97
2022-08-01T07:59:29.144Z,99071.81
2022-08-01T08:01:55.987Z,99066.06
2022-08-01T08:04:22.834Z,99068.13
2022-08-01T08:06:50.277Z,99063.81
2022-08-01T08:09:17.732Z,99068.53
2022-08-01T08:11:47.832Z,99064.66
2022-08-01T08:14:18.364Z,99063.81
2022-08-01T08:16:45.377Z,99059.28
2022-08-01T08:19:12.348Z,99063.34
2022-08-01T08:21:39.493Z,99064.34
2022-08-01T08:24:26.296Z,99061.22
2022-08-01T08:26:58.765Z,99055.31
2022-08-01T08:29:27.433Z,99064.00
2022-08-01T08:31:56.917Z,99059.53
2022-08-01T08:34:31.209Z,99060.16
2022-08-01T08:36:59.293Z,99066.13
2022-08-01T08:39:26.561Z,99068.13
2022-08-01T08:41:53.449Z,99077.00
2022-08-01T08:44:26.772Z,99080.50
2022-08-01T08:46:53.789Z,99064.28
2022-08-01T08:49:24.893Z,99072.22
2022-08-01T08:51:52.955Z,99077.53
2022-08-01T08:54:27.716Z,99074.38
2022-08-01T08:56:58.842Z,99077.78
2022-08-01T08:59:30.257Z,99087.78
2022-08-01T09:01:58.381Z,99086.41
2022-08-01T09:04:26.975Z,99081.03
2022-08-01T09:06:55.126Z,99086.41
2022-08-01T09:09:22.663Z,99092.09
2022-08-01T09:11:57.379Z,99094.38
2022-08-01T09:14:27.312Z,99093.16
2022-08-01T09:17:07.901Z,99095.22
2022-08-01T09:19:42.798Z,99091.22
2022-08-01T09:22:11.851Z,99096.47
2022-08-01T09:24:39.332Z,99097.09
2022-08-01T09:27:24.969Z,99099.69
2022-08-01T09:30:01.556Z,99095.19
2022-08-01T09:32:34.729Z,99097.75
2022-08-01T09:35:23.360Z,99096.56
2022-08-01T09:37:50.303Z,99096.94
2022-08-01T09:40:17.119Z,99095.03
2022-08-01T09:42:44.032Z,99090.59
2022-08-01T09:45:10.980Z,99096.97
2022-08-01T09:47:50.069Z,99093.13
2022-08-01T09:50:17.700Z,99097.91
2022-08-01T09:52:54.717Z,99097.00
2022-08-01T09:55:22.741Z,99095.69
2022-08-01T09:58:01.946Z,99083.84
2022-08-01T10:00:44.868Z,99088.38
2022-08-01T10:03:30.224Z,99092.94
2022-08-01T10:05:58.337Z,99100.38
2022-08-01T10:08:28.538Z,99097.75
2022-08-01T10:11:10.295Z,99093.72
2022-08-01T10:13:39.805Z,99086.97
2022-08-01T10:16:08.060Z,99083.25
2022-08-01T10:18:36.252Z,99081.56
2022-08-01T10:21:10.850Z,99075.34
2022-08-01T10:23:39.765Z,99073.06
2022-08-01T10:26:08.369Z,99084.72
2022-08-01T10:28:38.696Z,99078.44
2022-08-01T10:31:15.112Z,99073.59
2022-08-01T10:33:51.288Z,99078.22
2022-08-01T10:36:21.331Z,99073.22
2022-08-01T10:38:49.556Z,99073.53
2022-08-01T10:41:16.856Z,99086.63
2022-08-01T10:43:45.632Z,99084.53
2022-08-01T10:46:14.364Z,99069.50
2022-08-01T10:49:02.535Z,99062.34
2022-08-01T10:51:52.392Z,99055.81
2022-08-01T10:54:16.971Z,99064.25
2022-08-01T10:56:49.069Z,99059.84
2022-08-01T10:59:29.061Z,99048.88
2022-08-01T11:02:26.566Z,99053.31
2022-08-01T11:05:04.434Z,99048.75
2022-08-01T11:07:49.742Z,99049.66
2022-08-01T11:10:39.729Z,99059.81
2022-08-01T11:13:12.417Z,99061.22
2022-08-01T11:15:50.328Z,99063.09
2022-08-01T11:18:31.344Z,99059.38
2022-08-01T11:21:56.995Z,99054.59
2022-08-01T11:23:52.989Z,99062.06
2022-08-01T11:26:28.732Z,99064.47
2022-08-01T11:29:23.113Z,99055.59
2022-08-01T11:31:50.252Z,99044.91
2022-08-01T11:34:16.962Z,99045.13
2022-08-01T11:36:59.924Z,99052.63
2022-08-01T11:39:34.345Z,99054.25
2022-08-01T11:42:20.825Z,99052.63
2022-08-01T11:44:54.538Z,99047.63
2022-08-01T11:47:44.499Z,99061.78
2022-08-01T11:50:51.068Z,99051.03
2022-08-01T11:53:19.907Z,99054.91
2022-08-01T11:55:54.316Z,99046.94
2022-08-01T11:58:27.513Z,99041.00
2022-08-01T12:00:58.013Z,99045.84
2022-08-01T12:03:33.626Z,99044.56
2022-08-01T12:06:01.032Z,99037.88
2022-08-01T12:08:37.555Z,99042.13
2022-08-01T12:11:06.941Z,99038.69
2022-08-01T12:13:44.479Z,99054.09
2022-08-01T12:16:12.130Z,99048.34
2022-08-01T12:18:42.714Z,99037.00
2022-08-01T12:21:09.410Z,99027.75
2022-08-01T12:23:36.117Z,99038.50
2022-08-01T12:26:05.147Z,99038.28
2022-08-01T12:28:40.408Z,99039.72
2022-08-01T12:31:10.641Z,99036.38
2022-08-01T12:33:39.471Z,99040.00
2022-08-01T12:36:07.336Z,99027.09
2022-08-01T12:38:35.166Z,99026.28
2022-08-01T12:41:02.881Z,99030.19
2022-08-01T12:43:32.630Z,99018.34
2022-08-01T12:46:00.889Z,99026.34
2022-08-01T12:48:28.383Z,99027.75
2022-08-01T12:50:58.704Z,99022.28
2022-08-01T12:53:26.990Z,99028.44
2022-08-01T12:56:06.776Z,99025.38
2022-08-01T12:58:34.718Z,99022.63
2022-08-01T13:01:07.066Z,99032.03
2022-08-01T13:03:33.716Z,99026.63
2022-08-01T13:06:01.246Z,99024.88
2022-08-01T13:08:35.664Z,99023.56
2022-08-01T13:11:15.966Z,99018.16
2022-08-01T13:13:48.518Z,99015.47
2022-08-01T13:16:30.672Z,99017.09
2022-08-01T13:19:03.607Z,99026.53
2022-08-01T13:21:53.300Z,99022.38
2022-08-01T13:24:28.104Z,99025.38
2022-08-01T13:27:01.723Z,99022.94
2022-08-01T13:29:39.051Z,99020.00
2022-08-01T13:32:28.735Z,99027.84
2022-08-01T13:35:09.133Z,99025.88
2022-08-01T13:37:38.713Z,99028.13
2022-08-01T13:40:09.526Z,99029.47
2022-08-01T13:42:36.251Z,99019.47
2022-08-01T13:45:14.720Z,99030.34
2022-08-01T13:48:04.183Z,99022.19
2022-08-01T13:50:29.422Z,99016.78
2022-08-01T13:52:56.227Z,99009.22
2022-08-01T13:55:22.779Z,99033.94
2022-08-01T13:57:49.376Z,99030.41
2022-08-01T14:00:16.625Z,99023.03
2022-08-01T14:02:43.227Z,99019.25
2022-08-01T14:05:09.892Z,99018.56
2022-08-01T14:07:38.242Z,99022.09
2022-08-01T14:10:19.756Z,99025.66
2022-08-01T14:12:50.927Z,99030.06
2022-08-01T14:15:38.631Z,99023.69
2022-08-01T14:18:05.847Z,99034.31
2022-08-01T14:20:33.437Z,99022.88
2022-08-01T14:23:00.249Z,99022.03
2022-08-01T14:26:01.651Z,99027.56
2022-08-01T14:28:13.833Z,99026.72
2022-08-01T14:30:42.374Z,99026.06
2022-08-01T14:33:10.185Z,99027.59
2022-08-01T14:36:01.782Z,99024.25
2022-08-01T14:38:31.311Z,99031.19
2022-08-01T14:40:58.632Z,99042.53
2022-08-01T14:43:30.751Z,99037.06
2022-08-01T14:46:00.097Z,99038.50
2022-08-01T14:48:26.839Z,99038.28
2022-08-01T14:50:53.510Z,99039.50
2022-08-01T14:53:20.066Z,99038.69
2022-08-01T14:55:46.686Z,99035.13
2022-08-01T14:58:13.374Z,99029.22
2022-08-01T15:00:40.152Z,99033.25
2022-08-01T15:03:06.843Z,99025.72
2022-08-01T15:05:34.034Z,99028.88
2022-08-01T15:08:00.667Z,99034.47
2022-08-01T15:10:28.004Z,99035.84
2022-08-01T15:12:54.598Z,99053.59
2022-08-01T15:15:21.233Z,99047.81
2022-08-01T15:17:47.874Z,99041.97
2022-08-01T15:20:14.477Z,99043.28
2022-08-01T15:22:41.227Z,99050.69
2022-08-01T15:25:08.231Z,99040.75
2022-08-01T15:27:34.841Z,99052.91
2022-08-01T15:30:01.470Z,99052.88
2022-08-01T15:32:28.213Z,99059.63
2022-08-01T15:34:55.400Z,99062.97
2022-08-01T15:37:22.242Z,99063.22
2022-08-01T15:39:49.248Z,99065.81
2022-08-01T15:42:20.145Z,99074.44
2022-08-01T15:44:52.322Z,99068.28
2022-08-01T15:47:18.998Z,99072.94
2022-08-01T15:49:45.903Z,99068.50
2022-08-01T15:52:22.156Z,99074.69
2022-08-01T15:54:49.947Z,99072.22
2022-08-01T15:57:16.752Z,99077.72
2022-08-01T15:59:43.505Z,99070.34
2022-08-01T16:02:10.897Z,99073.84
2022-08-01T16:04:39.122Z,99074.75
2022-08-01T16:07:06.426Z,99071.25
2022-08-01T16:09:33.404Z,99074.75
2022-08-01T16:12:00.058Z,99079.16
2022-08-01T16:14:26.677Z,99076.56
2022-08-01T16:16:54.463Z,99081.72
2022-08-01T16:19:21.111Z,99075.25
2022-08-01T16:21:48.086Z,99075.50
2022-08-01T16:24:14.904Z,99069.41
2022-08-01T16:26:41.667Z,99071.66
2022-08-01T16:29:08.281Z,99073.25
2022-08-01T16:31:42.638Z,99071.63
2022-08-01T16:34:23.573Z,99085.78
2022-08-01T16:36:50.833Z,99080.03
2022-08-01T16:39:22.761Z,99078.31
2022-08-01T16:41:50.210Z,99087.53
2022-08-01T16:44:29.069Z,99081.81
2022-08-01T16:47:02.746Z,99069.78
2022-08-01T16:49:29.485Z,99068.03
2022-08-01T16:51:56.236Z,99072.25
2022-08-01T16:54:30.514Z,99076.56
2022-08-01T16:57:07.629Z,99079.38
2022-08-01T16:59:41.598Z,99080.13
2022-08-01T17:02:09.500Z,99076.56
2022-08-01T17:04:36.147Z,99086.28
2022-08-01T17:07:02.855Z,99079.88
2022-08-01T17:09:29.862Z,99082.84
2022-08-01T17:11:56.521Z,99089.75
2022-08-01T17:14:27.987Z,99086.75
2022-08-01T17:16:54.551Z,99088.25
2022-08-01T17:19:26.773Z,99089.31
2022-08-01T17:21:59.908Z,99093.00
2022-08-01T17:24:26.509Z,99084.91
2022-08-01T17:26:53.062Z,99093.25
2022-08-01T17:29:19.653Z,99093.44
2022-08-01T17:31:46.220Z,99096.19
2022-08-01T17:34:12.867Z,99098.78
2022-08-01T17:36:42.663Z,99107.31
2022-08-01T17:39:09.568Z,99110.16
2022-08-01T17:41:36.146Z,99125.38
2022-08-01T17:44:02.824Z,99114.47
2022-08-01T17:46:30.549Z,99114.00
2022-08-01T17:48:57.267Z,99115.25
2022-08-01T17:51:28.480Z,99124.78
2022-08-01T17:53:57.334Z,99120.94
2022-08-01T17:56:25.276Z,99117.69
2022-08-01T17:58:52.426Z,99118.81
2022-08-01T18:01:19.411Z,99118.03
2022-08-01T18:03:46.800Z,99115.31
2022-08-01T18:06:15.894Z,99128.78
2022-08-01T18:08:43.264Z,99128.66
2022-08-01T18:11:11.006Z,99128.78
2022-08-01T18:13:40.452Z,99119.63
2022-08-01T18:16:09.381Z,99126.63
2022-08-01T18:18:36.500Z,99128.53
2022-08-01T18:21:03.221Z,99128.38
2022-08-01T18:23:29.844Z,99134.16
2022-08-01T18:25:56.534Z,99130.03
2022-08-01T18:28:32.815Z,99137.91
2022-08-01T18:31:03.438Z,99135.53
2022-08-01T18:33:30.080Z,99135.56
2022-08-01T18:36:01.720Z,99138.03
2022-08-01T18:38:32.865Z,99136.78
2022-08-01T18:41:00.979Z,99143.06
2022-08-01T18:43:27.918Z,99136.94
2022-08-01T18:46:00.716Z,99140.19
2022-08-01T18:48:27.291Z,99153.94
2022-08-01T18:50:54.261Z,99158.84
2022-08-01T18:53:25.309Z,99149.50
2022-08-01T18:55:51.967Z,99157.22
2022-08-01T18:58:18.829Z,99159.28
2022-08-01T19:00:45.411Z,99170.34
2022-08-01T19:03:13.735Z,99167.84
2022-08-01T19:05:40.416Z,99179.66
2022-08-01T19:08:08.236Z,99177.06
2022-08-01T19:10:36.425Z,99183.06
2022-08-01T19:13:03.132Z,99184.09
2022-08-01T19:15:29.988Z,99186.16
2022-08-01T19:17:56.742Z,99197.59
2022-08-01T19:20:23.412Z,99199.91
2022-08-01T19:22:50.040Z,99202.97
2022-08-01T19:25:16.838Z,99206.69
2022-08-01T19:27:48.776Z,99212.84
2022-08-01T19:30:17.245Z,99213.94
2022-08-01T19:32:45.148Z,99218.25
2022-08-01T19:35:14.652Z,99210.47
2022-08-01T19:37:52.598Z,99214.19
2022-08-01T19:40:26.183Z,99220.34
2022-08-01T19:42:55.551Z,99214.78
2022-08-01T19:45:22.628Z,99211.50
2022-08-01T19:47:56.554Z,99220.56
2022-08-01T19:50:26.955Z,99223.88
2022-08-01T19:53:00.463Z,99228.22
2022-08-01T19:55:30.607Z,99234.19
2022-08-01T19:58:25.389Z,99248.16
2022-08-01T20:00:46.250Z,99236.44
2022-08-01T20:03:15.247Z,99245.91
2022-08-01T20:05:42.433Z,99239.13
2022-08-01T20:08:09.492Z,99244.28
2022-08-01T20:10:38.323Z,99233.13
2022-08-01T20:13:05.559Z,99248.78
2022-08-01T20:15:32.167Z,99254.94
2022-08-01T20:17:59.238Z,99258.63
2022-08-01T20:20:26.794Z,99242.56
2022-08-01T20:22:57.956Z,99255.94
2022-08-01T20:25:33.622Z,99252.47
2022-08-01T20:28:09.406Z,99248.34
2022-08-01T20:30:36.007Z,99256.56
2022-08-01T20:33:03.301Z,99254.47
2022-08-01T20:35:51.883Z,99252.44
2022-08-01T20:38:17.566Z,99261.88
2022-08-01T20:40:45.729Z,99260.22
2022-08-01T20:43:12.525Z,99252.00
2022-08-01T20:45:39.375Z,99253.47
2022-08-01T20:48:06.451Z,99260.25
2022-08-01T20:50:53.711Z,99259.38
2022-08-01T20:53:23.862Z,99262.03
2022-08-01T20:55:55.023Z,99273.34
2022-08-01T20:58:55.291Z,99269.38
2022-08-01T21:01:28.682Z,99269.66
2022-08-01T21:04:27.775Z,99264.50
2022-08-01T21:07:01.610Z,99262.88
2022-08-01T21:09:39.394Z,99262.47
2022-08-01T21:12:08.818Z,99257.91
2022-08-01T21:14:47.500Z,99261.22
2022-08-01T21:17:36.983Z,99258.56
2022-08-01T21:20:07.155Z,99252.38
2022-08-01T21:22:42.087Z,99260.19
2022-08-01T21:25:11.240Z,99264.06
2022-08-01T21:27:39.629Z,99264.47
2022-08-01T21:30:09.875Z,99270.56
2022-08-01T21:32:37.061Z,99273.34
2022-08-01T21:35:05.916Z,99264.94
2022-08-01T21:37:43.027Z,99274.28
2022-08-01T21:40:10.622Z,99276.78
2022-08-01T21:42:39.082Z,99276.34
2022-08-01T21:45:06.852Z,99283.56
2022-08-01T21:47:33.593Z,99286.88
2022-08-01T21:50:02.447Z,99291.97
2022-08-01T21:52:39.358Z,99287.63
2022-08-01T21:55:15.471Z,99283.75
2022-08-01T21:58:10.760Z,99285.09
2022-08-01T22:00:37.420Z,99286.50
2022-08-01T22:03:20.026Z,99287.91
2022-08-01T22:05:50.805Z,99280.50
2022-08-01T22:08:25.113Z,99291.28
2022-08-01T22:10:58.335Z,99288.41
2022-08-01T22:13:24.956Z,99289.34
2022-08-01T22:15:54.645Z,99287.88
2022-08-01T22:18:22.172Z,99286.22
2022-08-01T22:20:49.518Z,99304.47
2022-08-01T22:23:16.510Z,99300.13
2022-08-01T22:25:43.654Z,99311.38
2022-08-01T22:28:11.464Z,99310.75
2022-08-01T22:30:42.163Z,99303.81
2022-08-01T22:33:17.129Z,99301.84
2022-08-01T22:35:46.462Z,99294.59
2022-08-01T22:38:13.433Z,99294.41
2022-08-01T22:40:54.462Z,99293.41
2022-08-01T22:43:26.580Z,99300.81
2022-08-01T22:46:31.021Z,99301.91
2022-08-01T22:49:12.982Z,99306.22
2022-08-01T22:51:43.261Z,99307.56
2022-08-01T22:54:23.113Z,99309.81
2022-08-01T22:56:56.646Z,99299.13
2022-08-01T22:59:41.703Z,99292.13
2022-08-01T23:02:10.663Z,99293.88
2022-08-01T23:04:40.330Z,99289.34
2022-08-01T23:07:07.261Z,99299.75
2022-08-01T23:09:52.625Z,99293.16
2022-08-01T23:12:24.478Z,99284.84
2022-08-01T23:14:55.900Z,99284.44
2022-08-01T23:17:29.095Z,99270.22
2022-08-01T23:20:05.989Z,99272.91
2022-08-01T23:22:35.477Z,99270.38
2022-08-01T23:25:06.588Z,99274.38
2022-08-01T23:27:52.068Z,99278.50
2022-08-01T23:30:24.883Z,99275.69
2022-08-01T23:32:51.511Z,99266.13
2022-08-01T23:35:18.165Z,99270.31
2022-08-01T23:37:44.813Z,99267.34
2022-08-01T23:40:12.225Z,99283.22
2022-08-01T23:42:38.873Z,99269.56
2022-08-01T23:45:07.008Z,99274.09
2022-08-01T23:47:33.735Z,99279.09
2022-08-01T23:50:00.431Z,99271.38
2022-08-01T23:52:32.283Z,99268.53
2022-08-01T23:55:14.862Z,99264.16
2022-08-01T23:57:42.201Z,99261.56
